Time;durP1;ratioP1;P1;durP2;ratioP2;P2;SDS_P1;SDS_P2;PMS_P1;PMS_P2;Temp;Humidity;BMP_temperature;BMP_pressure;BME280_temperature;BME280_humidity;BME280_pressure;Samples;Min_cycle;Max_cycle;Signal;HPM_P1;HPM_P2
2023/07/25 00:00:05;;;;;;;19.77;14.27;;;;;;;12.79;100.00;100571.09;5053250;28;20021;-68
2023/07/25 00:02:30;;;;;;;20.77;13.82;;;;;;;12.82;100.00;100576.00;5053200;28;20497;-69
2023/07/25 00:04:55;;;;;;;20.55;13.98;;;;;;;12.81;100.00;100577.16;5053251;28;20053;-69
2023/07/25 00:07:21;;;;;;;21.73;14.35;;;;;;;12.82;100.00;100583.50;5053050;28;20029;-69
2023/07/25 00:09:46;;;;;;;21.75;14.73;;;;;;;12.80;100.00;100581.06;5053182;28;20024;-69
2023/07/25 00:12:12;;;;;;;22.08;14.52;;;;;;;12.76;100.00;100591.19;5053061;28;20029;-68
2023/07/25 00:14:37;;;;;;;20.55;13.20;;;;;;;12.75;100.00;100592.34;5052979;28;20468;-69
2023/07/25 00:17:03;;;;;;;20.48;13.43;;;;;;;12.72;100.00;100588.25;5053013;28;20059;-68
2023/07/25 00:19:28;;;;;;;20.88;14.25;;;;;;;12.68;100.00;100583.66;5053015;28;20047;-69
2023/07/25 00:21:53;;;;;;;22.08;13.55;;;;;;;12.67;100.00;100587.59;5052675;28;20059;-67
2023/07/25 00:24:18;;;;;;;20.42;14.25;;;;;;;12.66;100.00;100581.22;5052766;28;20047;-67
2023/07/25 00:26:44;;;;;;;20.48;13.45;;;;;;;12.60;100.00;100583.34;5051612;28;20037;-67
2023/07/25 00:29:09;;;;;;;20.17;13.70;;;;;;;12.57;100.00;100584.00;5052464;28;20135;-67
2023/07/25 00:31:35;;;;;;;21.25;14.30;;;;;;;12.51;100.00;100585.31;5052683;28;20040;-67
2023/07/25 00:34:00;;;;;;;19.98;13.65;;;;;;;12.50;100.00;100578.13;5052874;28;20037;-67
2023/07/25 00:36:26;;;;;;;20.60;13.98;;;;;;;12.42;100.00;100579.75;5052554;28;20025;-69
2023/07/25 00:38:51;;;;;;;20.77;13.63;;;;;;;12.43;100.00;100567.50;5052413;28;20107;-67
2023/07/25 00:41:16;;;;;;;21.33;13.88;;;;;;;12.42;100.00;100576.97;5052444;28;20025;-69
2023/07/25 00:43:41;;;;;;;22.10;12.43;;;;;;;12.44;100.00;100571.91;5052418;28;20401;-67
2023/07/25 00:46:07;;;;;;;20.98;12.60;;;;;;;12.43;100.00;100580.56;5052372;28;20033;-67
2023/07/25 00:48:32;;;;;;;21.60;12.93;;;;;;;12.44;100.00;100584.97;5052336;28;20032;-67
2023/07/25 00:50:58;;;;;;;21.55;12.93;;;;;;;12.44;100.00;100584.97;5052587;28;20032;-67
2023/07/25 00:53:23;;;;;;;22.00;12.98;;;;;;;12.43;100.00;100583.34;5052254;28;20040;-67
2023/07/25 00:55:49;;;;;;;21.10;13.77;;;;;;;12.43;100.00;100578.59;5052117;28;20492;-67
2023/07/25 00:58:16;;;;;;;20.52;13.15;;;;;;;12.39;100.00;100583.19;5052269;28;20151;-68
2023/07/25 01:00:43;;;;;;;20.30;12.77;;;;;;;12.30;100.00;100572.06;5051994;28;20375;-68
2023/07/25 01:03:09;;;;;;;19.73;12.90;;;;;;;12.26;100.00;100573.88;5051930;28;20118;-68
2023/07/25 01:05:41;;;;;;;20.30;12.88;;;;;;;12.20;100.00;100572.38;5051868;28;20048;-68
2023/07/25 01:08:07;;;;;;;25.60;13.50;;;;;;;12.24;100.00;100578.94;5052000;28;20033;-68
2023/07/25 01:10:34;;;;;;;21.98;14.40;;;;;;;12.22;100.00;100575.66;5050339;28;20674;-68
2023/07/25 01:13:00;;;;;;;23.80;14.50;;;;;;;12.21;100.00;100574.00;5051892;28;20118;-68
2023/07/25 01:15:26;;;;;;;21.67;13.70;;;;;;;12.19;100.00;100576.28;5051740;28;20469;-68
2023/07/25 01:17:52;;;;;;;20.60;13.73;;;;;;;12.16;100.00;100565.88;5051683;28;20021;-68
2023/07/25 01:20:17;;;;;;;21.55;14.63;;;;;;;12.07;100.00;100571.38;5051415;28;20029;-68
2023/07/25 01:22:44;;;;;;;21.77;14.60;;;;;;;12.03;100.00;100575.97;5051615;28;20203;-68
2023/07/25 01:25:10;;;;;;;20.45;13.82;;;;;;;11.96;100.00;100565.31;5051689;28;20533;-68
2023/07/25 01:27:35;;;;;;;20.08;13.50;;;;;;;11.91;100.00;100562.66;5051562;28;20104;-68
2023/07/25 01:30:01;;;;;;;21.25;13.63;;;;;;;11.89;100.00;100558.59;5051597;28;20068;-68
2023/07/25 01:32:26;;;;;;;21.95;14.40;;;;;;;11.84;100.00;100552.06;5051462;28;20409;-68
2023/07/25 01:34:51;;;;;;;23.55;13.93;;;;;;;11.83;100.00;100555.97;5051460;28;20025;-68
2023/07/25 01:37:17;;;;;;;21.77;14.75;;;;;;;11.81;100.00;100561.03;5051075;28;20488;-68
2023/07/25 01:39:43;;;;;;;22.33;13.55;;;;;;;11.75;100.00;100554.00;5051238;28;20033;-68
2023/07/25 01:42:09;;;;;;;21.63;14.93;;;;;;;11.79;100.00;100556.94;5051484;28;20059;-68
2023/07/25 01:44:34;;;;;;;25.25;14.57;;;;;;;11.78;100.00;100566.41;5051281;28;20021;-68
2023/07/25 01:46:59;;;;;;;21.95;13.80;;;;;;;11.80;100.00;100567.69;5051171;28;20043;-68
2023/07/25 01:49:25;;;;;;;21.52;14.68;;;;;;;11.79;100.00;100565.25;5051181;28;20033;-68
2023/07/25 01:51:50;;;;;;;21.60;14.73;;;;;;;11.80;100.00;100562.16;5051186;28;20397;-69
2023/07/25 01:54:16;;;;;;;21.80;15.88;;;;;;;11.79;100.00;100559.72;5051507;28;20556;-68
2023/07/25 01:56:42;;;;;;;21.58;14.63;;;;;;;11.72;100.00;100549.09;5051208;28;20111;-68
2023/07/25 01:59:07;;;;;;;20.80;14.45;;;;;;;11.67;100.00;100546.44;5051117;28;20104;-68
2023/07/25 02:01:33;;;;;;;24.00;14.82;;;;;;;11.65;100.00;100540.44;5051025;28;20064;-68
2023/07/25 02:03:58;;;;;;;21.77;14.52;;;;;;;11.61;100.00;100544.97;5051011;28;20017;-69
2023/07/25 02:06:23;;;;;;;22.10;14.35;;;;;;;11.57;100.00;100530.94;5050992;28;20028;-68
2023/07/25 02:08:49;;;;;;;23.15;15.32;;;;;;;11.54;100.00;100546.25;5051139;28;20036;-68
2023/07/25 02:11:15;;;;;;;21.95;14.50;;;;;;;11.53;100.00;100541.84;5050837;28;20395;-68
2023/07/25 02:13:40;;;;;;;22.73;14.75;;;;;;;11.50;100.00;100542.50;5050921;28;20055;-69
2023/07/25 02:16:05;;;;;;;23.05;14.38;;;;;;;11.43;100.00;100536.59;5050950;28;20033;-69
2023/07/25 02:18:31;;;;;;;24.15;14.27;;;;;;;11.44;100.00;100543.78;5050926;28;20060;-69
2023/07/25 02:20:56;;;;;;;22.25;14.93;;;;;;;11.39;100.00;100535.59;5050839;28;20032;-69
2023/07/25 02:23:21;;;;;;;23.08;14.95;;;;;;;11.41;100.00;100544.41;5051069;28;20040;-69
2023/07/25 02:25:47;;;;;;;21.25;15.05;;;;;;;11.37;100.00;100533.16;5050858;28;20040;-69
2023/07/25 02:28:13;;;;;;;22.10;15.45;;;;;;;11.39;100.00;100539.19;5050665;28;20048;-69
2023/07/25 02:30:38;;;;;;;23.45;15.52;;;;;;;11.39;100.00;100538.38;5050862;28;20515;-69
2023/07/25 02:33:03;;;;;;;23.45;15.65;;;;;;;11.37;100.00;100535.94;5050681;28;20029;-69
2023/07/25 02:35:29;;;;;;;24.00;15.77;;;;;;;11.33;100.00;100546.03;5050809;28;20346;-69
2023/07/25 02:37:54;;;;;;;22.73;15.23;;;;;;;11.26;100.00;100526.25;5050724;28;20396;-69
2023/07/25 02:40:19;;;;;;;22.25;14.98;;;;;;;11.26;100.00;100525.44;5050614;28;20422;-69
2023/07/25 02:42:45;;;;;;;22.38;14.95;;;;;;;11.28;100.00;100534.25;5050755;28;20044;-69
2023/07/25 02:45:10;;;;;;;20.40;14.60;;;;;;;11.28;100.00;100540.59;5050656;28;20036;-69
2023/07/25 02:47:36;;;;;;;21.95;14.73;;;;;;;11.27;100.00;100527.91;5049254;28;20113;-69
2023/07/25 02:50:01;;;;;;;24.40;15.98;;;;;;;11.30;100.00;100543.88;5053000;28;20453;-69
2023/07/25 02:52:26;;;;;;;24.90;15.55;;;;;;;11.28;100.00;100528.72;5052963;28;20061;-69
2023/07/25 02:54:52;;;;;;;24.80;16.38;;;;;;;11.24;100.00;100536.84;5053105;28;20025;-69
2023/07/25 02:57:17;;;;;;;24.10;16.23;;;;;;;11.20;100.00;100533.06;5054363;28;20025;-69
2023/07/25 02:59:42;;;;;;;22.67;15.55;;;;;;;11.14;100.00;100540.69;5054394;28;20024;-69
2023/07/25 03:02:10;;;;;;;24.48;15.98;;;;;;;11.11;100.00;100543.28;5054352;28;20025;-69
2023/07/25 03:04:35;;;;;;;23.85;15.85;;;;;;;11.07;100.00;100541.16;5054162;28;20029;-69
2023/07/25 03:07:00;;;;;;;23.92;16.15;;;;;;;11.04;100.00;100539.03;5054201;28;20473;-69
2023/07/25 03:09:26;;;;;;;24.35;15.52;;;;;;;11.02;100.00;100534.91;5054126;28;20060;-69
2023/07/25 03:11:51;;;;;;;24.50;15.18;;;;;;;11.01;100.00;100550.72;5053996;28;20078;-69
2023/07/25 03:14:16;;;;;;;23.85;15.85;;;;;;;10.98;100.00;100545.81;5054106;28;20040;-69
2023/07/25 03:16:42;;;;;;;23.35;15.20;;;;;;;10.95;100.00;100534.56;5054030;28;20364;-69
2023/07/25 03:19:07;;;;;;;23.98;15.60;;;;;;;10.99;100.00;100541.91;5054009;28;20036;-69
2023/07/25 03:21:32;;;;;;;23.92;15.82;;;;;;;11.00;100.00;100543.56;5053946;28;20074;-69
2023/07/25 03:23:58;;;;;;;22.05;15.23;;;;;;;11.03;100.00;100539.31;5053840;28;20449;-69
2023/07/25 03:26:23;;;;;;;23.23;15.95;;;;;;;11.07;100.00;100541.16;5053866;28;20087;-69
2023/07/25 03:28:48;;;;;;;22.88;16.77;;;;;;;11.08;100.00;100542.78;5053777;28;20048;-69
2023/07/25 03:31:13;;;;;;;24.42;16.17;;;;;;;11.12;100.00;100542.16;5053763;28;20370;-69
2023/07/25 03:33:39;;;;;;;24.80;16.40;;;;;;;11.13;100.00;100532.72;5053658;28;20473;-69
2023/07/25 03:36:07;;;;;;;23.90;16.67;;;;;;;11.14;100.00;100532.41;5053621;28;20381;-69
2023/07/25 03:38:32;;;;;;;26.05;17.02;;;;;;;11.18;100.00;100527.88;5053629;28;20029;-69
2023/07/25 03:40:58;;;;;;;23.33;16.42;;;;;;;11.19;100.00;100526.69;5053476;28;20028;-69
2023/07/25 03:43:24;;;;;;;23.73;16.35;;;;;;;11.19;100.00;100528.66;5053584;28;20048;-69
2023/07/25 03:45:49;;;;;;;22.55;16.52;;;;;;;11.17;100.00;100523.47;5053627;28;20023;-69
2023/07/25 03:48:14;;;;;;;24.77;16.55;;;;;;;11.17;100.00;100517.09;5053418;28;20025;-69
2023/07/25 03:50:40;;;;;;;22.83;15.82;;;;;;;11.15;100.00;100517.41;5053108;28;20373;-69
2023/07/25 03:53:05;;;;;;;23.42;15.95;;;;;;;11.14;100.00;100521.31;5051858;28;20025;-69
2023/07/25 03:55:31;;;;;;;24.08;16.63;;;;;;;11.12;100.00;100529.13;5053257;28;20127;-69
2023/07/25 03:57:56;;;;;;;24.90;16.05;;;;;;;11.11;100.00;100532.22;5053317;28;20148;-69
2023/07/25 04:00:22;;;;;;;21.90;15.35;;;;;;;11.10;100.00;100534.16;5053117;28;20136;-69
2023/07/25 04:02:47;;;;;;;22.88;15.57;;;;;;;11.12;100.00;100528.31;5053117;28;20068;-69
2023/07/25 04:05:13;;;;;;;21.85;15.10;;;;;;;11.14;100.00;100535.16;5053285;28;20029;-69
2023/07/25 04:07:38;;;;;;;24.00;15.18;;;;;;;11.14;100.00;100537.13;5053191;28;20025;-69
2023/07/25 04:10:04;;;;;;;23.75;15.38;;;;;;;11.17;100.00;100525.41;5053187;28;20024;-69
2023/07/25 04:12:29;;;;;;;22.65;15.00;;;;;;;11.18;100.00;100529.81;5053217;28;20025;-69
2023/07/25 04:14:55;;;;;;;23.55;14.85;;;;;;;11.19;100.00;100528.66;5053133;28;20017;-69
2023/07/25 04:17:20;;;;;;;22.38;14.32;;;;;;;11.16;100.00;100541.22;5053057;28;20401;-69
2023/07/25 04:19:45;;;;;;;22.88;14.23;;;;;;;11.17;100.00;100533.69;5053001;28;20461;-68
2023/07/25 04:22:11;;;;;;;22.33;14.43;;;;;;;11.25;100.00;100532.94;5053280;28;20043;-69
2023/07/25 04:24:37;;;;;;;25.45;15.10;;;;;;;11.28;100.00;100524.00;5053038;28;20384;-68
2023/07/25 04:27:02;;;;;;;22.00;14.00;;;;;;;11.33;100.00;100526.63;5052868;28;20557;-69
2023/07/25 04:29:27;;;;;;;22.95;14.05;;;;;;;11.34;100.00;100532.97;5053248;28;20052;-69
2023/07/25 04:31:53;;;;;;;21.00;13.77;;;;;;;11.37;100.00;100540.66;5052721;28;20024;-69
2023/07/25 04:34:18;;;;;;;22.15;13.93;;;;;;;11.42;100.00;100540.50;5052789;28;20082;-69
2023/07/25 04:36:43;;;;;;;24.55;15.25;;;;;;;11.40;100.00;100537.22;5052771;28;20024;-68
2023/07/25 04:39:09;;;;;;;23.13;15.82;;;;;;;11.41;100.00;100538.06;5052937;28;20108;-68
2023/07/25 04:41:34;;;;;;;23.48;15.02;;;;;;;11.42;100.00;100536.94;5051343;28;20031;-68
2023/07/25 04:43:59;;;;;;;24.17;15.20;;;;;;;11.47;100.00;100543.16;5052652;28;20032;-69
2023/07/25 04:46:25;;;;;;;23.33;15.15;;;;;;;11.48;100.00;100543.94;5052456;28;20027;-69
2023/07/25 04:48:50;;;;;;;23.10;15.73;;;;;;;11.51;100.00;100548.88;5052353;28;20104;-69
2023/07/25 04:51:15;;;;;;;22.85;15.13;;;;;;;11.49;100.00;100543.63;5052570;28;20315;-69
2023/07/25 04:53:41;;;;;;;22.98;15.05;;;;;;;11.50;100.00;100533.38;5052374;28;20036;-68
2023/07/25 04:56:06;;;;;;;23.75;15.30;;;;;;;11.53;100.00;100547.41;5052057;28;20033;-68
2023/07/25 04:58:31;;;;;;;23.98;15.73;;;;;;;11.54;100.00;100543.50;5052304;28;20096;-68
2023/07/25 05:00:57;;;;;;;22.55;15.52;;;;;;;11.63;100.00;100543.50;5051948;28;20036;-68
2023/07/25 05:03:22;;;;;;;24.63;15.45;;;;;;;11.71;100.00;100544.69;5050449;28;20048;-68
2023/07/25 05:05:51;;;;;;;23.55;15.27;;;;;;;11.76;100.00;100535.41;5050420;28;20476;-68
2023/07/25 05:08:16;;;;;;;23.48;15.40;;;;;;;11.88;100.00;100537.56;5051989;28;20039;-69
2023/07/25 05:10:42;;;;;;;24.40;15.70;;;;;;;11.99;100.00;100542.53;5051955;28;20025;-68
2023/07/25 05:13:07;;;;;;;25.33;16.27;;;;;;;12.12;100.00;100540.75;5051530;28;20029;-68
2023/07/25 05:15:32;;;;;;;24.98;16.33;;;;;;;12.23;100.00;100549.56;5051810;28;20056;-69
2023/07/25 05:17:58;;;;;;;25.88;17.70;;;;;;;12.38;100.00;100542.72;5051991;28;20028;-69
2023/07/25 05:20:23;;;;;;;24.23;15.00;;;;;;;12.52;100.00;100537.00;5051669;28;20424;-69
2023/07/25 05:22:48;;;;;;;22.88;14.63;;;;;;;12.60;100.00;100535.38;5051866;28;20318;-68
2023/07/25 05:25:14;;;;;;;21.45;13.57;;;;;;;12.72;100.00;100540.25;5051715;28;20025;-69
2023/07/25 05:27:39;;;;;;;22.48;13.73;;;;;;;12.81;100.00;100549.38;5051527;28;20396;-68
2023/07/25 05:30:05;;;;;;;26.15;13.77;;;;;;;12.88;100.00;100549.69;5051546;28;20461;-69
2023/07/25 05:32:31;;;;;;;23.30;13.98;;;;;;;12.91;100.00;100549.03;5051498;28;20135;-68
2023/07/25 05:34:56;;;;;;;22.80;13.32;;;;;;;12.98;100.00;100544.94;5051538;28;20025;-68
2023/07/25 05:37:22;;;;;;;23.15;13.07;;;;;;;13.00;100.00;100551.00;5051425;28;20025;-69
2023/07/25 05:39:50;;;;;;;21.88;13.60;;;;;;;13.06;100.00;100541.31;5051337;28;20109;-69
2023/07/25 05:42:15;;;;;;;24.55;14.57;;;;;;;13.15;100.00;100546.88;5051260;28;20488;-68
2023/07/25 05:44:40;;;;;;;21.45;13.52;;;;;;;13.24;100.00;100544.88;5051175;28;20025;-69
2023/07/25 05:47:06;;;;;;;20.48;11.68;;;;;;;13.26;100.00;100546.16;5051102;28;20036;-69
2023/07/25 05:49:31;;;;;;;20.80;12.23;;;;;;;13.35;100.00;100551.72;5051234;28;20029;-69
2023/07/25 05:51:56;;;;;;;20.23;12.05;;;;;;;13.39;100.00;100561.03;5051125;28;20159;-69
2023/07/25 05:54:22;;;;;;;20.65;12.57;;;;;;;13.41;100.00;100566.28;5051113;28;20025;-68
2023/07/25 05:56:47;;;;;;;21.10;11.43;;;;;;;13.43;100.00;100569.50;5051067;28;20032;-69
2023/07/25 05:59:12;;;;;;;20.10;12.40;;;;;;;13.41;100.00;100569.06;5051014;28;20033;-68
2023/07/25 06:01:39;;;;;;;20.55;12.60;;;;;;;13.38;100.00;100566.91;5050793;28;20419;-68
2023/07/25 06:04:05;;;;;;;21.83;12.93;;;;;;;13.44;100.00;100567.56;5051162;28;20029;-69
2023/07/25 06:06:30;;;;;;;20.58;12.48;;;;;;;13.50;100.00;100572.63;5050986;28;20025;-68
2023/07/25 06:08:56;;;;;;;23.70;12.05;;;;;;;13.59;100.00;100577.31;5051119;28;20045;-69
2023/07/25 06:11:23;;;;;;;20.00;11.93;;;;;;;13.64;100.00;100566.84;5050815;28;20029;-69
2023/07/25 06:13:52;;;;;;;20.90;11.73;;;;;;;13.62;100.00;100577.47;5050800;28;20059;-68
2023/07/25 06:16:18;;;;;;;22.25;11.88;;;;;;;13.53;100.00;100569.16;5051026;28;20477;-68
2023/07/25 06:18:44;;;;;;;21.17;12.27;;;;;;;13.50;100.00;100569.84;5050779;28;20040;-68
2023/07/25 06:21:10;;;;;;;21.42;12.40;;;;;;;13.50;100.00;100567.06;5050776;28;20052;-68
2023/07/25 06:23:35;;;;;;;20.38;12.20;;;;;;;13.54;100.00;100568.00;5050947;28;20380;-68
2023/07/25 06:26:00;;;;;;;20.85;12.45;;;;;;;13.55;100.00;100568.84;5055074;28;20033;-68
2023/07/25 06:28:26;;;;;;;18.63;11.43;;;;;;;13.54;100.00;100550.53;5054878;28;20539;-68
2023/07/25 06:30:51;;;;;;;20.90;12.00;;;;;;;13.50;100.00;100564.28;5054750;28;20029;-68
2023/07/25 06:33:17;;;;;;;22.23;12.25;;;;;;;13.65;100.00;100559.28;5054912;28;20041;-68
2023/07/25 06:35:42;;;;;;;21.42;12.20;;;;;;;13.71;100.00;100563.50;5055065;28;20457;-68
2023/07/25 06:38:07;;;;;;;19.60;12.55;;;;;;;13.77;100.00;100561.34;5053510;28;20037;-69
2023/07/25 06:40:33;;;;;;;22.98;12.80;;;;;;;13.73;100.00;100567.59;5054826;28;20032;-69
2023/07/25 06:42:58;;;;;;;18.70;12.43;;;;;;;13.82;100.00;100575.09;5054986;28;20021;-68
2023/07/25 06:45:23;;;;;;;21.80;12.95;;;;;;;13.86;100.00;100578.81;5054838;28;20032;-69
2023/07/25 06:47:49;;;;;;;19.95;13.00;;;;;;;13.87;100.00;100578.50;5054912;28;20086;-68
2023/07/25 06:50:14;;;;;;;21.73;13.30;;;;;;;13.88;100.00;100580.13;5054725;28;20543;-68
2023/07/25 06:52:39;;;;;;;22.33;13.27;;;;;;;13.97;100.00;100582.03;5054868;28;20040;-68
2023/07/25 06:55:05;;;;;;;22.38;13.15;;;;;;;14.07;100.00;100584.44;5054628;28;20515;-69
2023/07/25 06:57:31;;;;;;;22.30;13.02;;;;;;;14.03;100.00;100580.69;5054710;28;20029;-68
2023/07/25 06:59:56;;;;;;;22.95;12.93;;;;;;;14.14;100.00;100583.88;5054370;28;20420;-68
2023/07/25 07:02:22;;;;;;;20.00;13.43;;;;;;;14.34;100.00;100574.75;5054363;28;20115;-69
2023/07/25 07:04:47;;;;;;;19.13;12.20;;;;;;;14.54;100.00;100571.50;5054488;28;20049;-68
2023/07/25 07:07:12;;;;;;;21.83;12.25;;;;;;;14.68;100.00;100577.63;5054467;28;20029;-68
2023/07/25 07:09:38;;;;;;;21.35;12.65;;;;;;;14.85;100.00;100586.97;5053064;28;20082;-68
2023/07/25 07:12:03;;;;;;;20.40;12.15;;;;;;;14.86;100.00;100588.63;5054114;28;20049;-68
2023/07/25 07:14:29;;;;;;;21.17;12.57;;;;;;;15.03;100.00;100585.66;5054197;28;20086;-69
2023/07/25 07:16:55;;;;;;;20.10;11.65;;;;;;;15.27;99.81;100578.53;5054177;28;20124;-68
2023/07/25 07:19:20;;;;;;;20.85;12.07;;;;;;;15.50;99.90;100578.94;5054224;28;20029;-69
2023/07/25 07:21:46;;;;;;;20.83;11.52;;;;;;;15.60;97.48;100577.66;5054051;28;20027;-68
2023/07/25 07:24:11;;;;;;;23.42;11.80;;;;;;;15.53;94.99;100589.41;5054024;28;20104;-67
2023/07/25 07:26:36;;;;;;;19.35;10.88;;;;;;;15.54;94.88;100593.78;5053990;28;20090;-67
2023/07/25 07:29:02;;;;;;;19.13;11.30;;;;;;;15.59;94.23;100595.53;5053926;28;20503;-68
2023/07/25 07:31:27;;;;;;;21.27;11.25;;;;;;;15.70;92.69;100590.34;5053823;28;20028;-67
2023/07/25 07:33:52;;;;;;;23.25;11.68;;;;;;;15.95;92.23;100594.00;5053828;28;20021;-68
2023/07/25 07:36:17;;;;;;;20.55;11.60;;;;;;;16.11;89.65;100596.84;5053354;28;20457;-68
2023/07/25 07:38:43;;;;;;;20.05;10.77;;;;;;;16.30;91.11;100589.84;5053605;28;20093;-68
2023/07/25 07:41:08;;;;;;;18.15;10.77;;;;;;;16.37;89.61;100598.47;5053568;28;20044;-69
2023/07/25 07:43:35;;;;;;;18.88;10.00;;;;;;;16.61;89.97;100602.34;5053414;28;20047;-68
2023/07/25 07:46:00;;;;;;;17.38;10.00;;;;;;;16.59;84.37;100607.47;5051990;28;20033;-69
2023/07/25 07:48:25;;;;;;;18.23;9.90;;;;;;;16.71;86.90;100606.66;5052320;28;20087;-68
2023/07/25 07:50:51;;;;;;;17.73;10.13;;;;;;;16.81;82.85;100603.34;5053637;28;20061;-69
2023/07/25 07:53:17;;;;;;;17.80;9.30;;;;;;;16.80;80.56;100605.31;5053509;28;20033;-69
2023/07/25 07:55:42;;;;;;;18.00;8.90;;;;;;;16.68;82.10;100603.38;5053261;28;20033;-68
2023/07/25 07:58:09;;;;;;;18.77;9.60;;;;;;;16.49;80.54;100603.22;5053515;28;20025;-68
2023/07/25 08:00:34;;;;;;;17.13;9.40;;;;;;;16.33;82.69;100617.06;5053314;28;20441;-68
2023/07/25 08:02:59;;;;;;;17.95;9.20;;;;;;;16.09;80.59;100620.69;5053468;28;20033;-68
2023/07/25 08:05:25;;;;;;;16.25;8.70;;;;;;;15.79;79.19;100621.72;5053204;28;20017;-69
2023/07/25 08:07:50;;;;;;;17.02;9.20;;;;;;;15.71;81.67;100620.66;5053293;28;20033;-68
2023/07/25 08:10:15;;;;;;;18.13;8.80;;;;;;;15.64;81.15;100630.75;5052471;28;20032;-69
2023/07/25 08:12:41;;;;;;;17.38;8.73;;;;;;;15.63;81.52;100629.94;5053181;28;20024;-69
2023/07/25 08:15:07;;;;;;;15.15;8.80;;;;;;;15.63;82.37;100629.16;5053191;28;20028;-69
2023/07/25 08:17:32;;;;;;;15.88;9.25;;;;;;;15.66;82.19;100628.44;5053212;28;20037;-69
2023/07/25 08:19:59;;;;;;;16.48;8.70;;;;;;;15.79;83.72;100618.09;5053294;28;20033;-69
2023/07/25 08:22:24;;;;;;;17.75;9.40;;;;;;;15.98;82.10;100626.75;5052948;28;20036;-69
2023/07/25 08:24:52;;;;;;;16.73;9.82;;;;;;;16.13;80.39;100619.66;5053032;28;20039;-69
2023/07/25 08:27:17;;;;;;;16.85;9.65;;;;;;;16.38;79.75;100616.84;5052184;28;20515;-69
2023/07/25 08:29:45;;;;;;;18.25;9.63;;;;;;;16.68;78.36;100630.50;5051816;28;20056;-69
2023/07/25 08:32:10;;;;;;;16.20;9.27;;;;;;;17.02;81.31;100622.75;5051721;28;20021;-69
2023/07/25 08:34:37;;;;;;;16.02;8.85;;;;;;;16.93;75.14;100630.44;5051786;28;20021;-68
2023/07/25 08:37:03;;;;;;;16.35;8.75;;;;;;;16.67;75.67;100638.06;5051929;28;20029;-69
2023/07/25 08:39:28;;;;;;;16.50;8.80;;;;;;;16.41;76.86;100640.44;5050633;28;20028;-69
2023/07/25 08:41:57;;;;;;;14.70;8.93;;;;;;;16.34;77.18;100635.47;5052075;28;20062;-69
2023/07/25 08:44:24;;;;;;;15.77;9.10;;;;;;;16.32;78.31;100644.19;5052670;28;20388;-69
2023/07/25 08:46:52;;;;;;;17.75;8.70;;;;;;;16.22;77.62;100639.88;5051689;28;20048;-68
2023/07/25 08:49:23;;;;;;;15.25;8.85;;;;;;;16.09;77.24;100643.03;5052432;28;20086;-68
2023/07/25 08:51:53;;;;;;;18.60;8.80;;;;;;;16.15;77.73;100645.25;5052400;28;20477;-69
2023/07/25 08:54:21;;;;;;;15.50;8.98;;;;;;;16.21;76.61;100649.41;5050719;28;20378;-69
2023/07/25 08:56:47;;;;;;;14.98;8.60;;;;;;;16.48;74.91;100651.84;5052184;28;20100;-69
2023/07/25 08:59:13;;;;;;;19.42;8.32;;;;;;;16.55;72.94;100654.84;5052462;28;20091;-70
2023/07/25 09:01:38;;;;;;;15.23;8.82;;;;;;;16.57;74.62;100654.50;5052789;28;20033;-69
2023/07/25 09:04:04;;;;;;;17.90;9.30;;;;;;;16.59;74.30;100653.00;5050659;28;20422;-69
2023/07/25 09:06:31;;;;;;;16.58;8.77;;;;;;;16.65;76.17;100654.38;5052210;28;20400;-70
2023/07/25 09:08:56;;;;;;;14.50;8.32;;;;;;;16.80;76.33;100658.41;5050553;28;20373;-69
2023/07/25 09:11:22;;;;;;;15.45;8.70;;;;;;;16.86;73.70;100658.16;5051849;28;20025;-70
2023/07/25 09:13:50;;;;;;;16.13;8.98;;;;;;;16.83;74.19;100654.91;5050656;28;20453;-69
2023/07/25 09:16:18;;;;;;;15.43;9.38;;;;;;;16.93;74.83;100652.78;5051999;28;20027;-69
2023/07/25 09:18:44;;;;;;;15.73;8.95;;;;;;;17.10;71.07;100662.88;5051975;28;20028;-68
2023/07/25 09:21:11;;;;;;;15.68;8.70;;;;;;;17.02;70.33;100659.06;5051748;28;20039;-69
2023/07/25 09:23:37;;;;;;;15.23;8.77;;;;;;;17.06;68.70;100665.56;5051857;28;20025;-71
2023/07/25 09:26:10;;;;;;;15.00;9.00;;;;;;;17.11;68.98;100667.28;5051638;28;20028;-69
2023/07/25 09:28:46;;;;;;;15.10;8.63;;;;;;;17.10;66.82;100662.88;5049977;28;20045;-68
2023/07/25 09:31:12;;;;;;;13.93;8.73;;;;;;;17.10;65.77;100660.91;5051197;28;20025;-70
2023/07/25 09:33:37;;;;;;;14.25;8.27;;;;;;;17.10;65.56;100663.69;5051380;28;20029;-69
2023/07/25 09:36:03;;;;;;;14.95;8.80;;;;;;;17.18;67.66;100667.53;5051327;28;20032;-69
2023/07/25 09:38:28;;;;;;;16.48;8.88;;;;;;;17.29;67.60;100671.41;5051229;28;20047;-70
2023/07/25 09:40:54;;;;;;;15.98;9.07;;;;;;;17.31;67.63;100677.47;5051232;28;20044;-71
2023/07/25 09:43:27;;;;;;;15.98;9.18;;;;;;;17.38;65.98;100665.66;5051171;28;20025;-70
2023/07/25 09:45:53;;;;;;;19.10;9.55;;;;;;;17.66;67.41;100672.41;5051183;28;20538;-70
2023/07/25 09:48:19;;;;;;;12.75;8.63;;;;;;;17.86;65.59;100667.72;5051119;28;20036;-70
2023/07/25 09:50:45;;;;;;;14.07;8.48;;;;;;;17.91;62.96;100667.44;5050984;28;20476;-70
2023/07/25 09:53:15;;;;;;;16.02;8.70;;;;;;;18.11;64.53;100675.94;5051041;28;20045;-70
2023/07/25 09:55:41;;;;;;;13.55;8.50;;;;;;;18.36;59.76;100676.56;5050966;28;20029;-71
2023/07/25 09:58:07;;;;;;;16.13;8.75;;;;;;;18.40;57.64;100674.66;5050659;28;20032;-69
2023/07/25 10:00:32;;;;;;;13.82;8.45;;;;;;;18.56;61.22;100666.25;5050743;28;20033;-70
2023/07/25 10:02:58;;;;;;;14.02;8.77;;;;;;;18.64;59.69;100670.00;5050761;28;20131;-71
2023/07/25 10:05:26;;;;;;;15.10;8.60;;;;;;;18.66;57.88;100671.25;5050690;28;20092;-70
2023/07/25 10:07:53;;;;;;;17.25;9.23;;;;;;;18.92;59.80;100667.03;5051025;28;20029;-70
2023/07/25 10:10:19;;;;;;;15.50;9.57;;;;;;;19.22;59.47;100660.84;5050762;28;20021;-70
2023/07/25 10:12:44;;;;;;;15.55;8.50;;;;;;;19.25;59.76;100670.50;5050612;28;20591;-70
2023/07/25 10:15:11;;;;;;;15.35;8.20;;;;;;;18.69;59.77;100673.31;5050716;28;20029;-71
2023/07/25 10:17:37;;;;;;;16.83;9.30;;;;;;;18.56;59.03;100669.03;5050624;28;20033;-71
2023/07/25 10:20:05;;;;;;;13.23;8.35;;;;;;;18.90;60.68;100665.75;5050690;28;20481;-71
2023/07/25 10:22:42;;;;;;;17.08;9.00;;;;;;;19.24;60.02;100664.06;5050628;28;20036;-70
2023/07/25 10:25:09;;;;;;;13.73;8.85;;;;;;;19.22;58.70;100654.41;5050655;28;20329;-70
2023/07/25 10:27:35;;;;;;;13.73;9.05;;;;;;;19.15;57.88;100669.94;5050736;28;20115;-71
2023/07/25 10:30:04;;;;;;;13.95;8.90;;;;;;;19.04;58.77;100668.88;5050286;28;20128;-70
2023/07/25 10:32:46;;;;;;;18.58;9.10;;;;;;;19.12;60.72;100665.06;5050378;28;20033;-70
2023/07/25 10:35:11;;;;;;;10.73;7.50;;;;;;;18.89;55.43;100670.53;5050582;28;20132;-71
2023/07/25 10:37:44;;;;;;;16.00;8.73;;;;;;;18.68;59.20;100668.09;5050576;28;20541;-70
2023/07/25 10:40:13;;;;;;;14.10;8.50;;;;;;;18.81;57.79;100677.97;5050415;28;20029;-70
2023/07/25 10:42:48;;;;;;;12.68;8.35;;;;;;;18.96;56.53;100665.13;5050267;28;20025;-72
2023/07/25 10:45:29;;;;;;;14.73;7.97;;;;;;;18.69;56.34;100666.91;5048972;28;20492;-70
2023/07/25 10:47:55;;;;;;;13.90;8.80;;;;;;;18.89;57.26;100662.13;5050377;28;20028;-72
2023/07/25 10:50:47;;;;;;;15.77;8.10;;;;;;;18.88;56.48;100682.13;5050815;28;20040;-71
2023/07/25 10:53:21;;;;;;;15.23;8.30;;;;;;;18.85;59.07;100678.88;5050335;28;20049;-72
2023/07/25 10:56:05;;;;;;;12.90;8.63;;;;;;;19.18;59.79;100660.75;5050755;28;20044;-72
2023/07/25 10:58:38;;;;;;;16.42;8.60;;;;;;;19.23;57.48;100659.66;5049329;28;20025;-72
2023/07/25 11:01:04;;;;;;;13.35;8.23;;;;;;;19.18;55.80;100665.56;5050272;28;20067;-71